createdAt,value
2023-02-02T00:00:55.395Z,96680.22
2023-02-02T00:03:44.175Z,96669.50
2023-02-02T00:06:35.876Z,96659.53
2023-02-02T00:09:28.034Z,96669.88
2023-02-02T00:12:17.533Z,96691.53
2023-02-02T00:15:07.458Z,96674.63
2023-02-02T00:17:56.128Z,96633.91
2023-02-02T00:20:50.513Z,96639.53
2023-02-02T00:23:40.529Z,96673.75
2023-02-02T00:26:30.333Z,96640.09
2023-02-02T00:29:23.109Z,96642.97
2023-02-02T00:32:12.180Z,96663.03
2023-02-02T00:35:00.804Z,96672.72
2023-02-02T00:37:51.090Z,96650.03
2023-02-02T00:40:41.574Z,96649.41
2023-02-02T00:43:30.189Z,96659.94
2023-02-02T00:46:19.379Z,96655.81
2023-02-02T00:49:08.508Z,96637.00
2023-02-02T00:51:59.545Z,96651.06
2023-02-02T00:54:48.205Z,96630.44
2023-02-02T00:57:39.147Z,96644.47
2023-02-02T01:00:28.564Z,96652.94
2023-02-02T01:03:18.217Z,96638.25
2023-02-02T01:06:07.650Z,96633.53
2023-02-02T01:08:56.375Z,96669.38
2023-02-02T01:11:44.980Z,96653.28
2023-02-02T01:14:36.634Z,96640.09
2023-02-02T01:17:25.425Z,96641.75
2023-02-02T01:20:18.403Z,96634.34
2023-02-02T01:23:08.046Z,96626.50
2023-02-02T01:25:58.040Z,96640.72
2023-02-02T01:28:47.454Z,96649.16
2023-02-02T01:31:37.820Z,96642.34
2023-02-02T01:34:27.367Z,96654.53
2023-02-02T01:37:16.688Z,96649.56
2023-02-02T01:40:06.488Z,96618.78
2023-02-02T01:42:56.035Z,96645.59
2023-02-02T01:45:45.290Z,96626.97
2023-02-02T01:48:37.013Z,96622.34
2023-02-02T01:51:30.479Z,96637.59
2023-02-02T01:54:22.956Z,96633.00
2023-02-02T01:57:16.854Z,96635.88
2023-02-02T02:00:09.564Z,96644.03
2023-02-02T02:03:08.384Z,96614.78
2023-02-02T02:06:03.208Z,96617.66
2023-02-02T02:08:54.930Z,96623.84
2023-02-02T02:11:43.974Z,96622.16
2023-02-02T02:14:48.557Z,96640.28
2023-02-02T02:17:50.724Z,96617.59
2023-02-02T02:21:39.330Z,96633.00
2023-02-02T02:25:13.082Z,96632.78
2023-02-02T02:28:27.521Z,96632.94
2023-02-02T02:31:51.230Z,96632.50
2023-02-02T02:34:54.210Z,96625.88
2023-02-02T02:37:51.700Z,96625.03
2023-02-02T02:40:43.874Z,96637.03
2023-02-02T02:43:36.793Z,96621.78
2023-02-02T02:46:26.516Z,96653.94
2023-02-02T02:49:17.481Z,96629.81
2023-02-02T02:52:08.110Z,96623.56
2023-02-02T02:55:01.171Z,96626.59
2023-02-02T02:58:02.289Z,96630.47
2023-02-02T03:01:01.741Z,96637.47
2023-02-02T03:04:02.763Z,96627.41
2023-02-02T03:06:56.183Z,96636.00
2023-02-02T03:09:49.065Z,96641.78
2023-02-02T03:12:45.449Z,96648.56
2023-02-02T03:15:35.636Z,96642.81
2023-02-02T03:18:47.107Z,96497.59
2023-02-02T03:21:36.416Z,96650.22
2023-02-02T03:24:25.414Z,96645.06
2023-02-02T03:27:15.755Z,96632.50
2023-02-02T03:30:05.151Z,96638.50
2023-02-02T03:32:55.591Z,96644.44
2023-02-02T03:35:44.752Z,96646.91
2023-02-02T03:38:33.826Z,96673.03
2023-02-02T03:41:22.458Z,96642.94
2023-02-02T03:44:14.117Z,96654.94
2023-02-02T03:47:02.768Z,96653.94
2023-02-02T03:49:52.039Z,96659.91
2023-02-02T03:52:41.257Z,96649.84
2023-02-02T03:55:29.992Z,96675.78
2023-02-02T03:58:22.516Z,96651.53
2023-02-02T04:01:14.737Z,96645.50
2023-02-02T04:04:04.585Z,96660.38
2023-02-02T04:06:53.337Z,96655.84
2023-02-02T04:09:42.505Z,96660.81
2023-02-02T04:12:31.429Z,96670.91
2023-02-02T04:15:20.042Z,96672.28
2023-02-02T04:18:11.000Z,96666.84
2023-02-02T04:21:00.358Z,96658.88
2023-02-02T04:23:50.275Z,96665.28
2023-02-02T04:26:39.155Z,96658.53
2023-02-02T04:29:28.603Z,96671.72
2023-02-02T04:32:18.197Z,96664.09
2023-02-02T04:35:10.283Z,96670.00
2023-02-02T04:37:59.625Z,96678.84
2023-02-02T04:40:49.248Z,96664.00
2023-02-02T04:43:39.463Z,96672.22
2023-02-02T04:46:28.904Z,96666.41
2023-02-02T04:49:17.987Z,96691.97
2023-02-02T04:52:08.734Z,96698.34
2023-02-02T04:54:57.493Z,96687.84
2023-02-02T04:57:46.107Z,96688.66
2023-02-02T05:00:36.375Z,96694.84
2023-02-02T05:03:25.089Z,96707.41
2023-02-02T05:06:16.057Z,96700.22
2023-02-02T05:09:06.189Z,96711.38
2023-02-02T05:11:55.687Z,96708.25
2023-02-02T05:14:44.306Z,96711.13
2023-02-02T05:17:34.862Z,96710.91
2023-02-02T05:20:23.789Z,96707.22
2023-02-02T05:23:12.366Z,96723.66
2023-02-02T05:26:03.072Z,96700.13
2023-02-02T05:28:51.927Z,96703.00
2023-02-02T05:31:41.377Z,96708.78
2023-02-02T05:34:30.414Z,96705.47
2023-02-02T05:37:19.040Z,96711.03
2023-02-02T05:40:09.717Z,96696.34
2023-02-02T05:42:59.851Z,96691.09
2023-02-02T05:45:48.496Z,96710.00
2023-02-02T05:48:38.036Z,96706.78
2023-02-02T05:51:30.541Z,96707.13
2023-02-02T05:54:20.677Z,96714.97
2023-02-02T05:57:09.927Z,96714.09
2023-02-02T06:00:00.363Z,96720.31
2023-02-02T06:02:49.015Z,96738.09
2023-02-02T06:05:38.465Z,96725.31
2023-02-02T06:08:27.577Z,96714.94
2023-02-02T06:11:18.732Z,96718.94
2023-02-02T06:14:08.268Z,96734.00
2023-02-02T06:16:58.724Z,96709.63
2023-02-02T06:19:47.393Z,96709.91
2023-02-02T06:22:37.918Z,96711.81
2023-02-02T06:25:27.553Z,96712.66
2023-02-02T06:28:16.271Z,96717.19
2023-02-02T06:31:07.263Z,96724.00
2023-02-02T06:33:59.612Z,96712.44
2023-02-02T06:36:49.320Z,96703.22
2023-02-02T06:39:37.953Z,96719.31
2023-02-02T06:42:27.796Z,96729.00
2023-02-02T06:45:16.412Z,96725.84
2023-02-02T06:48:11.288Z,96719.09
2023-02-02T06:51:01.439Z,96715.22
2023-02-02T06:53:50.929Z,96727.84
2023-02-02T06:56:39.852Z,96702.47
2023-02-02T06:59:28.838Z,96715.66
2023-02-02T07:02:17.545Z,96721.66
2023-02-02T07:05:07.204Z,96702.91
2023-02-02T07:07:57.821Z,96712.78
2023-02-02T07:11:13.158Z,96717.13
2023-02-02T07:13:56.334Z,96720.28
2023-02-02T07:16:44.957Z,96741.72
2023-02-02T07:19:34.203Z,96732.66
2023-02-02T07:22:22.938Z,96731.63
2023-02-02T07:25:13.470Z,96736.16
2023-02-02T07:28:02.247Z,96730.22
2023-02-02T07:30:51.333Z,96735.19
2023-02-02T07:33:42.496Z,96736.84
2023-02-02T07:36:31.546Z,96767.78
2023-02-02T07:39:20.189Z,96743.50
2023-02-02T07:42:12.871Z,96717.47
2023-02-02T07:45:35.870Z,96757.53
2023-02-02T07:48:12.349Z,96751.91
2023-02-02T07:51:01.593Z,96741.06
2023-02-02T07:53:52.387Z,96748.09
2023-02-02T07:56:41.615Z,96744.00
2023-02-02T07:59:32.486Z,96767.09
2023-02-02T08:02:21.831Z,96754.34
2023-02-02T08:05:10.997Z,96759.69
2023-02-02T08:08:00.381Z,96773.09
2023-02-02T08:10:50.038Z,96780.16
2023-02-02T08:13:38.922Z,96769.44
2023-02-02T08:16:30.221Z,96785.94
2023-02-02T08:19:19.355Z,96775.84
2023-02-02T08:22:08.059Z,96786.38
2023-02-02T08:24:56.707Z,96787.22
2023-02-02T08:27:45.336Z,96795.06
2023-02-02T08:30:35.854Z,96807.47
2023-02-02T08:33:26.317Z,96810.97
2023-02-02T08:36:17.417Z,96811.16
2023-02-02T08:39:08.183Z,96817.97
2023-02-02T08:41:57.209Z,96827.47
2023-02-02T08:46:01.993Z,96823.22
2023-02-02T08:48:09.527Z,96821.81
2023-02-02T08:51:01.526Z,96829.41
2023-02-02T08:53:50.193Z,96824.31
2023-02-02T08:56:38.981Z,96823.03
2023-02-02T08:59:27.995Z,96838.81
2023-02-02T09:02:16.875Z,96835.09
2023-02-02T09:05:07.763Z,96847.97
2023-02-02T09:07:57.993Z,96848.59
2023-02-02T09:10:47.117Z,96856.16
2023-02-02T09:13:35.814Z,96849.97
2023-02-02T09:16:26.597Z,96857.00
2023-02-02T09:19:15.702Z,96864.22
2023-02-02T09:22:04.324Z,96866.25
2023-02-02T09:24:54.359Z,96861.44
2023-02-02T09:27:43.404Z,96858.16
2023-02-02T09:30:32.125Z,96866.19
2023-02-02T09:33:21.173Z,96872.56
2023-02-02T09:36:12.002Z,96863.91
2023-02-02T09:39:01.416Z,96862.41
2023-02-02T09:42:13.423Z,96861.56
2023-02-02T09:45:08.680Z,96869.81
2023-02-02T09:48:06.487Z,96870.84
2023-02-02T09:50:59.216Z,96879.28
2023-02-02T09:53:55.643Z,96872.06
2023-02-02T09:56:50.810Z,96868.63
2023-02-02T09:59:42.854Z,96866.63
2023-02-02T10:02:39.317Z,96868.50
2023-02-02T10:05:30.793Z,96862.47
2023-02-02T10:08:34.828Z,96862.03
2023-02-02T10:11:36.771Z,96857.59
2023-02-02T10:14:31.185Z,96858.16
2023-02-02T10:17:42.436Z,96866.66
2023-02-02T10:20:45.136Z,96868.75
2023-02-02T10:23:36.822Z,96867.09
2023-02-02T10:26:32.057Z,96868.31
2023-02-02T10:29:47.984Z,96859.88
2023-02-02T10:32:48.843Z,96864.81
2023-02-02T10:35:43.332Z,96853.59
2023-02-02T10:38:41.002Z,96872.44
2023-02-02T10:41:36.922Z,96855.09
2023-02-02T10:44:32.948Z,96879.59
2023-02-02T10:47:28.840Z,96848.06
2023-02-02T10:50:21.637Z,96864.13
2023-02-02T10:53:15.060Z,96853.25
2023-02-02T10:56:06.965Z,96858.84
2023-02-02T10:59:03.622Z,96863.38
2023-02-02T11:01:52.401Z,96847.28
2023-02-02T11:04:58.921Z,96847.50
2023-02-02T11:07:50.109Z,96842.94
2023-02-02T11:10:39.172Z,96855.16
2023-02-02T11:13:31.796Z,96855.53
2023-02-02T11:16:38.779Z,96844.88
2023-02-02T11:19:33.807Z,96846.28
2023-02-02T11:22:29.979Z,96844.25
2023-02-02T11:25:32.243Z,96835.81
2023-02-02T11:28:25.424Z,96857.53
2023-02-02T11:31:14.065Z,96844.75
2023-02-02T11:34:15.742Z,96840.00
2023-02-02T11:37:14.086Z,96835.88
2023-02-02T11:40:28.576Z,96817.09
2023-02-02T11:43:21.797Z,96842.53
2023-02-02T11:46:21.044Z,96818.00
2023-02-02T11:49:18.924Z,96826.81
2023-02-02T11:52:16.101Z,96825.22
2023-02-02T11:55:17.445Z,96842.31
2023-02-02T11:58:25.238Z,96828.72
2023-02-02T12:01:28.110Z,96836.75
2023-02-02T12:04:26.216Z,96844.63
2023-02-02T12:07:26.683Z,96838.41
2023-02-02T12:10:20.663Z,96827.31
2023-02-02T12:13:16.605Z,96847.97
2023-02-02T12:16:19.364Z,96831.19
2023-02-02T12:19:34.969Z,96823.34
2023-02-02T12:22:50.316Z,96866.28
2023-02-02T12:25:56.300Z,96845.00
2023-02-02T12:28:59.508Z,96836.75
2023-02-02T12:32:05.846Z,96834.91
2023-02-02T12:35:05.626Z,96827.31
2023-02-02T12:38:04.986Z,96836.13
2023-02-02T12:41:18.571Z,96843.78
2023-02-02T12:44:18.112Z,96851.13
2023-02-02T12:47:19.699Z,96839.66
2023-02-02T12:50:26.132Z,96826.03
2023-02-02T12:53:28.623Z,96827.69
2023-02-02T12:56:27.213Z,96834.72
2023-02-02T12:59:34.968Z,96824.81
2023-02-02T13:02:34.595Z,96841.09
2023-02-02T13:05:41.115Z,96839.25
2023-02-02T13:08:37.592Z,96845.31
2023-02-02T13:11:38.720Z,96854.84
2023-02-02T13:14:32.757Z,96832.44
2023-02-02T13:17:27.064Z,96859.81
2023-02-02T13:20:23.944Z,96849.06
2023-02-02T13:23:21.139Z,96856.75
2023-02-02T13:26:16.557Z,96872.19
2023-02-02T13:29:12.720Z,96864.56
2023-02-02T13:32:05.752Z,96858.91
2023-02-02T13:35:00.883Z,96873.63
2023-02-02T13:37:55.067Z,96875.28
2023-02-02T13:40:45.376Z,96884.59
2023-02-02T13:43:41.617Z,96874.06
2023-02-02T13:46:36.127Z,96870.31
2023-02-02T13:49:29.610Z,96868.88
2023-02-02T13:52:49.381Z,96886.66
2023-02-02T13:55:55.042Z,96882.75
2023-02-02T13:59:02.178Z,96879.41
2023-02-02T14:01:52.318Z,96894.88
2023-02-02T14:04:41.307Z,96884.72
2023-02-02T14:07:41.732Z,96885.38
2023-02-02T14:10:35.231Z,96895.72
2023-02-02T14:13:45.104Z,96897.78
2023-02-02T14:16:49.360Z,96902.13
2023-02-02T14:19:56.159Z,96906.44
2023-02-02T14:22:51.356Z,96914.91
2023-02-02T14:26:05.317Z,96910.56
2023-02-02T14:28:54.358Z,96911.19
2023-02-02T14:31:53.387Z,96923.38
2023-02-02T14:34:43.381Z,96926.25
2023-02-02T14:37:44.449Z,96924.59
2023-02-02T14:40:48.408Z,96946.06
2023-02-02T14:43:46.524Z,96912.91
2023-02-02T14:46:38.717Z,96958.00
2023-02-02T14:49:36.020Z,96923.78
2023-02-02T14:52:26.038Z,96941.72
2023-02-02T14:55:19.897Z,96973.91
2023-02-02T14:58:10.668Z,96984.66
2023-02-02T15:01:08.493Z,96962.28
2023-02-02T15:03:58.969Z,96945.72
2023-02-02T15:06:48.857Z,96960.44
2023-02-02T15:09:39.510Z,96974.66
2023-02-02T15:12:34.819Z,96959.41
2023-02-02T15:15:30.156Z,96977.78
2023-02-02T15:18:26.412Z,96982.34
2023-02-02T15:21:18.073Z,96989.28
2023-02-02T15:27:21.025Z,96869.53
2023-02-02T15:57:54.398Z,97037.88
2023-02-02T16:22:46.892Z,97071.91
2023-02-02T16:43:57.251Z,97071.47
2023-02-02T17:08:39.877Z,97133.59
2023-02-02T17:11:26.618Z,97142.47
2023-02-02T17:14:57.056Z,97147.50
2023-02-02T17:17:50.747Z,97154.97
2023-02-02T17:20:20.937Z,97169.88
2023-02-02T17:22:53.755Z,97162.19
2023-02-02T17:25:28.838Z,97186.34
2023-02-02T17:27:59.285Z,97192.00
2023-02-02T17:30:30.347Z,97115.00
2023-02-02T17:32:59.024Z,97108.91
2023-02-02T17:35:39.919Z,97173.31
2023-02-02T17:38:18.309Z,97228.97
2023-02-02T17:40:48.166Z,97204.81
2023-02-02T17:43:30.070Z,97238.41
2023-02-02T17:46:05.891Z,97230.63
2023-02-02T17:48:38.956Z,97241.28
2023-02-02T17:51:13.431Z,97254.19
2023-02-02T17:53:44.595Z,97223.06
2023-02-02T17:56:13.238Z,97261.59
2023-02-02T17:58:43.504Z,97250.47
2023-02-02T18:01:18.760Z,97246.44
2023-02-02T18:03:48.337Z,97268.84
2023-02-02T18:06:21.275Z,97143.69
2023-02-02T18:08:54.787Z,97146.94
2023-02-02T18:11:23.702Z,97239.88
2023-02-02T18:13:52.736Z,97253.59
2023-02-02T18:16:29.775Z,97206.94
2023-02-02T18:18:59.921Z,97171.91
2023-02-02T18:21:29.714Z,97286.06
2023-02-02T18:24:02.463Z,97230.72
2023-02-02T18:26:53.155Z,97297.88
2023-02-02T18:29:28.987Z,97208.78
2023-02-02T18:32:00.110Z,97242.81
2023-02-02T18:34:45.614Z,97305.56
2023-02-02T18:37:20.807Z,97304.91
2023-02-02T18:39:52.363Z,97300.25
2023-02-02T18:42:38.253Z,97308.78
2023-02-02T18:45:09.806Z,97253.69
2023-02-02T18:47:44.190Z,97315.63
2023-02-02T18:50:16.064Z,97320.16
2023-02-02T18:52:45.813Z,97321.34
2023-02-02T18:55:18.498Z,97242.91
2023-02-02T18:57:58.453Z,97303.75
2023-02-02T19:00:30.927Z,97330.34
2023-02-02T19:03:00.750Z,97311.94
2023-02-02T19:05:48.970Z,97318.44
2023-02-02T19:08:19.996Z,97304.91
2023-02-02T19:10:57.559Z,97322.41
2023-02-02T19:13:26.375Z,97328.75
2023-02-02T19:15:57.377Z,97306.69
2023-02-02T19:18:29.349Z,97324.25
2023-02-02T19:23:49.189Z,97323.97
2023-02-02T19:26:28.750Z,97322.97
2023-02-02T19:29:18.035Z,97331.66
2023-02-02T19:31:48.749Z,97319.63
2023-02-02T19:34:24.144Z,97331.00
2023-02-02T19:36:58.676Z,97340.97
2023-02-02T19:39:40.837Z,97336.78
2023-02-02T19:42:13.239Z,97342.94
2023-02-02T19:44:44.594Z,97341.56
2023-02-02T19:47:25.719Z,97323.38
2023-02-02T19:49:58.340Z,97343.06
2023-02-02T19:52:27.982Z,97309.13
2023-02-02T19:54:57.349Z,97262.09
2023-02-02T19:57:37.166Z,97305.41
2023-02-02T20:00:20.054Z,97256.84
2023-02-02T20:03:17.382Z,97216.16
2023-02-02T20:05:49.645Z,97255.53
2023-02-02T20:08:24.646Z,97279.13
2023-02-02T20:10:55.030Z,97342.72
2023-02-02T20:13:27.314Z,97337.00
2023-02-02T20:16:42.620Z,97343.66
2023-02-02T20:19:18.543Z,97327.00
2023-02-02T20:22:08.603Z,97349.03
2023-02-02T20:24:40.741Z,97347.66
2023-02-02T20:27:17.494Z,97350.34
2023-02-02T20:30:01.479Z,97354.31
2023-02-02T20:32:40.465Z,97311.94
2023-02-02T20:35:25.600Z,97350.63
2023-02-02T20:38:08.703Z,97354.31
2023-02-02T20:40:59.326Z,97356.19
2023-02-02T20:43:33.751Z,97365.38
2023-02-02T20:46:11.443Z,97246.38
2023-02-02T20:48:42.014Z,97219.09
2023-02-02T20:51:12.053Z,97335.50
2023-02-02T20:53:41.167Z,97296.88
2023-02-02T20:56:10.727Z,97293.19
2023-02-02T20:58:46.901Z,97219.97
2023-02-02T21:01:26.255Z,97287.06
2023-02-02T21:04:01.321Z,97320.94
2023-02-02T21:06:34.308Z,97371.38
2023-02-02T21:09:12.325Z,97290.03
2023-02-02T21:11:42.106Z,97338.59
2023-02-02T21:18:40.356Z,97350.59
2023-02-02T21:21:11.996Z,97330.91
2023-02-02T21:26:31.029Z,97314.59
2023-02-02T21:29:03.709Z,97303.13
2023-02-02T21:35:22.468Z,97273.59
2023-02-02T21:37:58.790Z,97250.47
2023-02-02T21:43:20.628Z,97338.56
2023-02-02T21:50:45.768Z,97256.72
2023-02-02T21:57:06.332Z,97363.09
2023-02-02T21:59:37.851Z,97371.97
2023-02-02T22:02:34.418Z,97357.44
2023-02-02T22:05:18.987Z,97281.88
2023-02-02T22:07:53.990Z,97273.19
2023-02-02T22:10:48.923Z,97344.94
